createdAt,value
2019-01-23T00:00:53.996Z,0.00
2019-01-23T00:01:53.994Z,0.00
2019-01-23T00:02:54.004Z,0.00
2019-01-23T00:03:53.977Z,0.00
2019-01-23T00:04:53.961Z,0.00
2019-01-23T00:05:53.951Z,0.00
2019-01-23T00:06:53.948Z,0.00
2019-01-23T00:07:53.925Z,0.00
2019-01-23T00:08:53.936Z,0.00
2019-01-23T00:09:53.902Z,0.00
2019-01-23T00:10:53.892Z,0.00
2019-01-23T00:11:53.885Z,0.00
2019-01-23T00:12:53.878Z,0.00
2019-01-23T00:13:53.887Z,0.00
2019-01-23T00:14:53.873Z,0.00
2019-01-23T00:15:53.883Z,0.00
2019-01-23T00:16:53.836Z,0.00
2019-01-23T00:17:53.824Z,0.00
2019-01-23T00:18:53.816Z,0.00
2019-01-23T00:19:53.796Z,0.00
2019-01-23T00:20:53.811Z,0.00
2019-01-23T00:21:53.889Z,0.00
2019-01-23T00:22:53.767Z,0.00
2019-01-23T00:23:53.768Z,0.00
2019-01-23T00:24:53.754Z,0.00
2019-01-23T00:25:54.407Z,0.00
2019-01-23T00:26:53.852Z,0.00
2019-01-23T00:27:54.336Z,0.00
2019-01-23T00:28:53.727Z,0.00
2019-01-23T00:29:53.704Z,0.00
2019-01-23T00:30:53.724Z,0.00
2019-01-23T00:31:53.698Z,0.00
2019-01-23T00:32:53.666Z,0.00
2019-01-23T00:33:53.656Z,0.00
2019-01-23T00:34:53.639Z,0.00
2019-01-23T00:35:53.647Z,0.00
2019-01-23T00:36:53.675Z,0.00
2019-01-23T00:37:53.613Z,0.00
2019-01-23T00:38:53.605Z,0.00
2019-01-23T00:39:53.588Z,0.00
2019-01-23T00:40:53.597Z,0.00
2019-01-23T00:41:53.569Z,0.00
2019-01-23T00:42:53.578Z,0.00
2019-01-23T00:43:53.552Z,0.00
2019-01-23T00:44:53.576Z,0.00
2019-01-23T00:45:53.526Z,0.00
2019-01-23T00:46:54.533Z,0.00
2019-01-23T00:47:53.525Z,0.00
2019-01-23T00:48:53.505Z,0.00
2019-01-23T00:49:53.497Z,0.00
2019-01-23T00:50:53.485Z,0.00
2019-01-23T00:51:53.464Z,0.00
2019-01-23T00:52:53.470Z,0.00
2019-01-23T00:53:53.471Z,0.00
2019-01-23T00:54:53.427Z,0.00
2019-01-23T00:55:53.429Z,0.00
2019-01-23T00:56:53.442Z,0.00
2019-01-23T00:57:53.402Z,0.00
2019-01-23T00:58:53.421Z,0.00
2019-01-23T00:59:53.378Z,0.00
2019-01-23T01:00:53.391Z,0.00
2019-01-23T01:01:53.364Z,0.00
2019-01-23T01:02:53.367Z,0.00
2019-01-23T01:03:53.347Z,0.00
2019-01-23T01:04:53.374Z,0.00
2019-01-23T01:05:53.316Z,0.00
2019-01-23T01:06:53.383Z,0.00
2019-01-23T01:07:53.313Z,0.00
2019-01-23T01:08:53.301Z,0.00
2019-01-23T01:09:53.283Z,0.00
2019-01-23T01:10:53.297Z,0.00
2019-01-23T01:11:53.256Z,0.00
2019-01-23T01:12:53.244Z,0.00
2019-01-23T01:13:53.261Z,0.00
2019-01-23T01:14:53.226Z,0.00
2019-01-23T01:15:53.256Z,0.00
2019-01-23T01:16:53.209Z,0.00
2019-01-23T01:17:53.198Z,0.00
2019-01-23T01:18:53.221Z,0.00
2019-01-23T01:19:53.181Z,0.00
2019-01-23T01:20:53.191Z,0.00
2019-01-23T01:21:53.164Z,0.00
2019-01-23T01:22:53.149Z,0.00
2019-01-23T01:23:53.134Z,0.00
2019-01-23T01:24:53.153Z,0.00
2019-01-23T01:25:53.128Z,0.00
2019-01-23T01:26:53.115Z,0.00
2019-01-23T01:27:53.110Z,0.00
2019-01-23T01:28:56.113Z,0.00
2019-01-23T01:29:53.078Z,0.00
2019-01-23T01:30:53.089Z,0.00
2019-01-23T01:31:53.062Z,0.00
2019-01-23T01:32:53.040Z,0.00
2019-01-23T01:33:53.036Z,0.00
2019-01-23T01:34:53.035Z,0.00
2019-01-23T01:35:53.043Z,0.00
2019-01-23T01:36:52.998Z,0.00
2019-01-23T01:37:52.986Z,0.00
2019-01-23T01:38:52.978Z,0.00
2019-01-23T01:39:53.014Z,0.00
2019-01-23T01:40:53.014Z,0.00
2019-01-23T01:41:52.952Z,0.00
2019-01-23T01:42:52.951Z,0.00
2019-01-23T01:43:52.934Z,0.00
2019-01-23T01:44:52.923Z,0.00
2019-01-23T01:45:52.931Z,0.00
2019-01-23T01:46:52.898Z,0.00
2019-01-23T01:47:52.918Z,0.00
2019-01-23T01:48:52.881Z,0.00
2019-01-23T01:49:52.894Z,0.00
2019-01-23T01:50:52.877Z,0.00
2019-01-23T01:51:52.853Z,0.00
2019-01-23T01:52:52.865Z,0.00
2019-01-23T01:53:52.828Z,0.00
2019-01-23T01:54:52.854Z,0.00
2019-01-23T01:55:52.804Z,0.00
2019-01-23T01:56:52.800Z,0.00
2019-01-23T01:57:52.778Z,0.00
2019-01-23T01:58:52.778Z,0.00
2019-01-23T01:59:52.769Z,0.00
2019-01-23T02:00:52.797Z,0.00
2019-01-23T02:01:52.753Z,0.00
2019-01-23T02:02:52.739Z,0.00
2019-01-23T02:03:52.725Z,0.00
2019-01-23T02:04:52.722Z,0.00
2019-01-23T02:05:52.711Z,0.00
2019-01-23T02:06:52.714Z,0.00
2019-01-23T02:07:52.675Z,0.00
2019-01-23T02:08:52.666Z,0.00
2019-01-23T02:09:52.664Z,0.00
2019-01-23T02:10:52.640Z,0.00
2019-01-23T02:11:52.672Z,0.00
2019-01-23T02:12:52.632Z,0.00
2019-01-23T02:13:52.620Z,0.00
2019-01-23T02:14:52.633Z,0.00
2019-01-23T02:15:52.595Z,0.00
2019-01-23T02:16:52.613Z,0.00
2019-01-23T02:17:52.570Z,0.00
2019-01-23T02:18:52.678Z,0.00
2019-01-23T02:19:52.556Z,0.00
2019-01-23T02:20:52.548Z,0.00
2019-01-23T02:21:52.565Z,0.00
2019-01-23T02:22:52.523Z,0.00
2019-01-23T02:23:52.513Z,0.00
2019-01-23T02:24:52.505Z,0.00
2019-01-23T02:25:52.493Z,0.00
2019-01-23T02:26:52.486Z,0.00
2019-01-23T02:27:52.494Z,0.00
2019-01-23T02:28:52.458Z,0.00
2019-01-23T02:29:52.456Z,0.00
2019-01-23T02:30:52.436Z,0.00
2019-01-23T02:31:52.436Z,0.00
2019-01-23T02:32:52.452Z,0.00
2019-01-23T02:33:52.420Z,0.00
2019-01-23T02:34:52.397Z,0.00
2019-01-23T02:35:52.393Z,0.00
2019-01-23T02:36:52.373Z,0.00
2019-01-23T02:37:52.379Z,0.00
2019-01-23T02:38:52.376Z,0.00
2019-01-23T02:39:52.370Z,0.00
2019-01-23T02:40:52.329Z,0.00
2019-01-23T02:41:52.327Z,0.00
2019-01-23T02:42:52.317Z,0.00
2019-01-23T02:43:52.301Z,0.00
2019-01-23T02:44:52.301Z,0.00
2019-01-23T02:45:52.303Z,0.00
2019-01-23T02:46:52.272Z,0.00
2019-01-23T02:47:52.261Z,0.00
2019-01-23T02:48:52.300Z,0.00
2019-01-23T02:49:52.233Z,0.00
2019-01-23T02:50:52.226Z,0.00
2019-01-23T02:51:52.224Z,0.00
2019-01-23T02:52:52.221Z,0.00
2019-01-23T02:53:52.224Z,0.00
2019-01-23T02:54:52.183Z,0.00
2019-01-23T02:55:52.176Z,0.00
2019-01-23T02:56:52.166Z,0.00
2019-01-23T02:57:52.167Z,0.00
2019-01-23T02:58:52.148Z,0.00
2019-01-23T02:59:52.154Z,0.00
2019-01-23T03:00:52.119Z,0.00
2019-01-23T03:01:52.113Z,0.00
2019-01-23T03:02:52.137Z,0.00
2019-01-23T03:03:52.089Z,0.00
2019-01-23T03:04:52.074Z,0.00
2019-01-23T03:05:52.062Z,0.00
2019-01-23T03:06:52.056Z,0.00
2019-01-23T03:07:52.059Z,0.00
2019-01-23T03:08:52.116Z,0.00
2019-01-23T03:09:52.033Z,0.00
2019-01-23T03:10:52.040Z,0.00
2019-01-23T03:11:52.026Z,0.00
2019-01-23T03:12:52.005Z,0.00
2019-01-23T03:13:51.990Z,0.00
2019-01-23T03:14:52.014Z,0.00
2019-01-23T03:15:52.029Z,0.00
2019-01-23T03:16:51.971Z,0.00
2019-01-23T03:17:51.948Z,0.00
2019-01-23T03:18:51.934Z,0.00
2019-01-23T03:19:51.934Z,0.00
2019-01-23T03:20:51.920Z,0.00
2019-01-23T03:21:51.948Z,0.00
2019-01-23T03:22:51.909Z,0.00
2019-01-23T03:23:51.884Z,0.00
2019-01-23T03:24:51.874Z,0.00
2019-01-23T03:25:51.867Z,0.00
2019-01-23T03:26:51.856Z,0.00
2019-01-23T03:27:51.861Z,0.00
2019-01-23T03:28:51.829Z,0.00
2019-01-23T03:29:51.832Z,0.00
2019-01-23T03:30:51.808Z,0.00
2019-01-23T03:31:51.843Z,0.00
2019-01-23T03:32:51.831Z,0.00
2019-01-23T03:33:51.793Z,0.00
2019-01-23T03:34:51.774Z,0.00
2019-01-23T03:35:51.753Z,0.00
2019-01-23T03:36:51.755Z,0.00
2019-01-23T03:37:51.765Z,0.00
2019-01-23T03:38:51.728Z,0.00
2019-01-23T03:39:51.733Z,0.00
2019-01-23T03:40:51.709Z,0.00
2019-01-23T03:41:51.718Z,0.00
2019-01-23T03:42:51.717Z,0.00
2019-01-23T03:43:51.676Z,0.00
2019-01-23T03:44:51.694Z,0.00
2019-01-23T03:45:51.661Z,0.00
2019-01-23T03:46:51.673Z,0.00
2019-01-23T03:47:51.632Z,0.00
2019-01-23T03:48:51.621Z,0.00
2019-01-23T03:49:51.608Z,0.00
2019-01-23T03:50:51.602Z,0.00
2019-01-23T03:51:51.628Z,0.00
2019-01-23T03:52:51.587Z,0.00
2019-01-23T03:53:51.571Z,0.00
2019-01-23T03:54:51.559Z,0.00
2019-01-23T03:55:51.540Z,0.00
2019-01-23T03:56:51.533Z,0.00
2019-01-23T03:57:51.552Z,0.00
2019-01-23T03:58:51.517Z,0.00
2019-01-23T03:59:51.500Z,0.00
2019-01-23T04:00:51.488Z,0.00
2019-01-23T04:01:51.478Z,0.00
2019-01-23T04:02:51.496Z,0.00
2019-01-23T04:03:51.493Z,0.00
2019-01-23T04:04:51.452Z,0.00
2019-01-23T04:05:51.449Z,0.00
2019-01-23T04:06:51.433Z,0.00
2019-01-23T04:07:51.442Z,0.00
2019-01-23T04:08:51.413Z,0.00
2019-01-23T04:09:51.406Z,0.00
2019-01-23T04:10:51.377Z,0.00
2019-01-23T04:11:51.383Z,0.00
2019-01-23T04:12:51.361Z,0.00
2019-01-23T04:13:51.376Z,0.00
2019-01-23T04:14:51.331Z,0.00
2019-01-23T04:15:51.328Z,0.00
2019-01-23T04:16:51.318Z,0.00
2019-01-23T04:17:51.316Z,0.00
2019-01-23T04:18:51.300Z,0.00
2019-01-23T04:19:51.307Z,0.00
2019-01-23T04:20:51.271Z,0.00
2019-01-23T04:21:51.264Z,0.00
2019-01-23T04:22:51.250Z,0.00
2019-01-23T04:23:51.247Z,0.00
2019-01-23T04:24:51.271Z,0.00
2019-01-23T04:25:51.233Z,0.00
2019-01-23T04:26:51.214Z,0.00
2019-01-23T04:27:51.201Z,0.00
2019-01-23T04:28:51.182Z,0.00
2019-01-23T04:29:51.179Z,0.00
2019-01-23T04:30:51.196Z,0.00
2019-01-23T04:31:51.183Z,0.00
2019-01-23T04:32:51.164Z,0.00
2019-01-23T04:33:51.134Z,0.00
2019-01-23T04:34:51.180Z,0.00
2019-01-23T04:35:51.121Z,0.00
2019-01-23T04:36:51.109Z,0.00
2019-01-23T04:37:51.103Z,0.00
2019-01-23T04:38:51.089Z,0.00
2019-01-23T04:39:51.066Z,0.00
2019-01-23T04:40:51.078Z,0.00
2019-01-23T04:41:51.073Z,0.00
2019-01-23T04:42:51.036Z,0.00
2019-01-23T04:43:51.036Z,0.00
2019-01-23T04:44:51.024Z,0.00
2019-01-23T04:45:51.026Z,0.00
2019-01-23T04:46:51.022Z,0.00
2019-01-23T04:47:50.998Z,0.00
2019-01-23T04:48:50.986Z,0.00
2019-01-23T04:49:50.975Z,0.00
2019-01-23T04:50:50.985Z,0.00
2019-01-23T04:51:50.964Z,0.00
2019-01-23T04:52:50.929Z,0.00
2019-01-23T04:53:50.941Z,0.00
2019-01-23T04:54:50.939Z,0.00
2019-01-23T04:55:50.913Z,0.00
2019-01-23T04:56:50.923Z,0.00
2019-01-23T04:57:50.882Z,0.00
2019-01-23T04:58:50.877Z,0.00
2019-01-23T04:59:50.860Z,0.00
2019-01-23T05:00:50.870Z,0.00
2019-01-23T05:01:50.863Z,0.00
2019-01-23T05:02:50.841Z,0.00
2019-01-23T05:03:50.817Z,0.00
2019-01-23T05:04:50.802Z,0.00
2019-01-23T05:05:50.829Z,0.00
2019-01-23T05:06:50.789Z,0.00
2019-01-23T05:07:50.796Z,0.00
2019-01-23T05:08:50.767Z,0.00
2019-01-23T05:09:59.424Z,0.00
2019-01-23T05:10:50.746Z,0.00
2019-01-23T05:11:50.758Z,0.00
2019-01-23T05:12:50.727Z,0.00
2019-01-23T05:13:50.752Z,0.00
2019-01-23T05:14:50.720Z,0.00
2019-01-23T05:15:50.686Z,0.00
2019-01-23T05:16:50.678Z,0.00
2019-01-23T05:17:50.700Z,0.00
2019-01-23T05:18:50.664Z,0.00
2019-01-23T05:19:50.648Z,0.00
2019-01-23T05:20:50.644Z,0.00
2019-01-23T05:21:50.622Z,0.00
2019-01-23T05:22:50.613Z,0.00
2019-01-23T05:23:50.634Z,0.00
2019-01-23T05:24:50.602Z,0.00
2019-01-23T05:25:50.593Z,0.00
2019-01-23T05:26:50.600Z,0.00
2019-01-23T05:27:50.569Z,0.00
2019-01-23T05:28:50.579Z,0.00
2019-01-23T05:29:54.829Z,0.00
2019-01-23T05:30:50.532Z,0.00
2019-01-23T05:31:50.527Z,0.00
2019-01-23T05:32:50.521Z,0.00
2019-01-23T05:33:50.522Z,0.00
2019-01-23T05:34:50.493Z,0.00
2019-01-23T05:35:50.479Z,0.00
2019-01-23T05:36:50.469Z,0.00
2019-01-23T05:37:50.464Z,0.00
2019-01-23T05:38:50.483Z,0.00
2019-01-23T05:39:50.445Z,0.00
2019-01-23T05:40:50.437Z,0.00
2019-01-23T05:41:50.446Z,0.00
2019-01-23T05:42:50.411Z,0.00
2019-01-23T05:43:50.433Z,0.00
2019-01-23T05:44:50.391Z,0.00
2019-01-23T05:45:50.382Z,0.00
2019-01-23T05:46:50.374Z,0.00
2019-01-23T05:47:50.355Z,0.00
2019-01-23T05:48:50.372Z,0.00
2019-01-23T05:49:50.365Z,0.00
2019-01-23T05:50:50.334Z,0.00
2019-01-23T05:51:50.326Z,0.00
2019-01-23T05:52:50.309Z,0.00
2019-01-23T05:53:50.296Z,0.00
2019-01-23T05:54:50.304Z,0.00
2019-01-23T05:55:50.281Z,0.00
2019-01-23T05:56:50.268Z,0.00
2019-01-23T05:57:50.264Z,0.00
2019-01-23T05:58:50.252Z,0.00
2019-01-23T05:59:50.261Z,0.00
2019-01-23T06:00:50.230Z,0.00
2019-01-23T06:01:50.215Z,0.00
2019-01-23T06:02:50.206Z,0.00
2019-01-23T06:03:50.203Z,0.00
2019-01-23T06:04:50.223Z,0.00
2019-01-23T06:05:50.173Z,0.00
2019-01-23T06:06:50.164Z,0.00
2019-01-23T06:07:50.152Z,0.00
2019-01-23T06:08:50.140Z,0.00
2019-01-23T06:09:50.141Z,0.00
2019-01-23T06:10:50.151Z,0.00
2019-01-23T06:11:50.116Z,0.00
2019-01-23T06:12:50.107Z,0.00
2019-01-23T06:13:50.092Z,0.00
2019-01-23T06:14:50.078Z,0.00
2019-01-23T06:15:50.107Z,0.00
2019-01-23T06:16:50.059Z,0.00
2019-01-23T06:17:50.055Z,0.00
2019-01-23T06:18:50.049Z,0.00
2019-01-23T06:19:50.031Z,0.00
2019-01-23T06:20:50.019Z,0.00
2019-01-23T06:21:50.035Z,0.00
2019-01-23T06:22:50.002Z,0.00
2019-01-23T06:23:49.993Z,0.00
2019-01-23T06:24:50.005Z,0.00
2019-01-23T06:25:49.967Z,0.00
2019-01-23T06:26:49.980Z,0.00
2019-01-23T06:27:49.950Z,0.00
2019-01-23T06:28:49.938Z,0.00
2019-01-23T06:29:49.957Z,4.00
2019-01-23T06:30:49.943Z,0.00
2019-01-23T06:31:49.913Z,0.00
2019-01-23T06:32:49.904Z,0.00
2019-01-23T06:33:49.892Z,4.00
2019-01-23T06:34:49.874Z,0.00
2019-01-23T06:35:49.904Z,4.00
2019-01-23T06:36:49.862Z,4.00
2019-01-23T06:37:49.842Z,4.00
2019-01-23T06:38:49.834Z,4.00
2019-01-23T06:39:49.822Z,4.00
2019-01-23T06:40:49.813Z,8.00
2019-01-23T06:41:49.840Z,8.00
2019-01-23T06:42:49.802Z,8.00
2019-01-23T06:43:49.790Z,12.00
2019-01-23T06:44:49.780Z,16.00
2019-01-23T06:45:49.773Z,12.00
2019-01-23T06:46:49.755Z,12.00
2019-01-23T06:47:49.770Z,16.00
2019-01-23T06:48:49.734Z,20.00
2019-01-23T06:49:49.728Z,20.00
2019-01-23T06:50:49.716Z,24.00
2019-01-23T06:51:49.723Z,28.00
2019-01-23T06:52:49.690Z,32.00
2019-01-23T06:53:49.711Z,32.00
2019-01-23T06:54:49.678Z,36.00
2019-01-23T06:55:49.673Z,36.00
2019-01-23T06:56:49.654Z,44.00
2019-01-23T06:57:49.669Z,44.00
2019-01-23T06:58:49.632Z,48.00
2019-01-23T06:59:49.619Z,56.00
2019-01-23T07:00:49.612Z,60.00
2019-01-23T07:01:49.604Z,64.00
2019-01-23T07:02:49.594Z,68.00
2019-01-23T07:03:49.605Z,76.00
2019-01-23T07:04:49.575Z,76.00
2019-01-23T07:05:49.604Z,80.00
2019-01-23T07:06:49.566Z,88.00
2019-01-23T07:07:49.544Z,88.00
2019-01-23T07:08:49.554Z,96.00
2019-01-23T07:09:49.519Z,100.00
2019-01-23T07:10:49.517Z,108.00
2019-01-23T07:11:49.498Z,120.00
2019-01-23T07:12:49.517Z,124.00
2019-01-23T07:13:49.514Z,128.00
2019-01-23T07:14:49.473Z,132.00
2019-01-23T07:15:49.466Z,140.00
2019-01-23T07:16:49.454Z,152.00
2019-01-23T07:17:49.433Z,156.00
2019-01-23T07:18:49.440Z,176.00
2019-01-23T07:19:49.445Z,172.00
2019-01-23T07:20:49.404Z,176.00
2019-01-23T07:21:49.404Z,188.00
2019-01-23T07:22:49.389Z,200.00
2019-01-23T07:23:49.372Z,200.00
2019-01-23T07:24:49.363Z,232.00
2019-01-23T07:25:49.383Z,224.00
2019-01-23T07:26:49.352Z,236.00
2019-01-23T07:27:49.351Z,224.00
2019-01-23T07:28:49.515Z,264.00
2019-01-23T07:29:49.334Z,276.00
2019-01-23T07:30:49.322Z,272.00
2019-01-23T07:31:49.289Z,280.00
2019-01-23T07:32:49.279Z,324.00
2019-01-23T07:33:49.276Z,336.00
2019-01-23T07:34:49.267Z,344.00
2019-01-23T07:35:49.284Z,340.00
2019-01-23T07:36:49.243Z,404.00
2019-01-23T07:37:49.230Z,452.00
2019-01-23T07:38:49.223Z,436.00
2019-01-23T07:39:49.213Z,500.00
2019-01-23T07:40:49.251Z,488.00
2019-01-23T07:41:49.191Z,508.00
2019-01-23T07:42:49.181Z,480.00
2019-01-23T07:43:49.166Z,592.00
2019-01-23T07:44:49.178Z,520.00
2019-01-23T07:45:49.163Z,468.00
2019-01-23T07:46:49.142Z,484.00
2019-01-23T07:47:49.133Z,620.00
2019-01-23T07:48:49.119Z,664.00
2019-01-23T07:49:49.126Z,632.00
2019-01-23T07:50:49.093Z,756.00
2019-01-23T07:51:49.080Z,744.00
2019-01-23T07:52:49.072Z,732.00
2019-01-23T07:53:49.070Z,740.00
2019-01-23T07:54:49.078Z,744.00
2019-01-23T07:59:22.138Z,936.00
2019-01-23T08:00:18.435Z,908.00
2019-01-23T08:01:18.400Z,892.00
2019-01-23T08:02:18.385Z,708.00
2019-01-23T08:03:18.376Z,816.00
2019-01-23T08:04:18.369Z,1224.00
2019-01-23T08:05:19.601Z,1000.00
2019-01-23T08:06:18.340Z,824.00
2019-01-23T08:07:18.335Z,760.00
2019-01-23T08:08:18.321Z,992.00
2019-01-23T08:09:18.308Z,940.00
2019-01-23T08:10:18.305Z,900.00
2019-01-23T08:11:18.316Z,1124.00
2019-01-23T08:12:18.284Z,1320.00
2019-01-23T08:13:18.351Z,1252.00
2019-01-23T08:14:18.257Z,1264.00
2019-01-23T08:15:18.248Z,1252.00
2019-01-23T08:16:18.265Z,1364.00
2019-01-23T08:17:18.224Z,1168.00
2019-01-23T08:18:18.220Z,1260.00
2019-01-23T08:19:18.210Z,1128.00
2019-01-23T08:20:18.193Z,1256.00
2019-01-23T08:21:18.430Z,1684.00
2019-01-23T08:22:18.176Z,1480.00
2019-01-23T08:23:18.181Z,1496.00
2019-01-23T08:24:18.181Z,1868.00
2019-01-23T08:25:18.148Z,1752.00
2019-01-23T08:26:18.128Z,1404.00
2019-01-23T08:27:18.142Z,1800.00
2019-01-23T08:28:18.108Z,1788.00
2019-01-23T08:29:18.102Z,1740.00
2019-01-23T08:30:18.091Z,2332.00
2019-01-23T08:31:18.112Z,2040.00
2019-01-23T08:32:18.091Z,2048.00
2019-01-23T08:33:18.060Z,1724.00
2019-01-23T08:34:18.043Z,2096.00
2019-01-23T08:35:18.056Z,2592.00
2019-01-23T08:36:18.026Z,2584.00
2019-01-23T08:37:18.016Z,2352.00
2019-01-23T08:38:18.026Z,2888.00
2019-01-23T08:39:17.993Z,2948.00
2019-01-23T08:40:17.981Z,2684.00
2019-01-23T08:41:17.968Z,2592.00
2019-01-23T08:42:17.985Z,2852.00
2019-01-23T08:43:17.956Z,3128.00
2019-01-23T08:44:17.967Z,3188.00
2019-01-23T08:45:17.942Z,3208.00
2019-01-23T08:46:17.912Z,3728.00
2019-01-23T08:47:17.905Z,3360.00
2019-01-23T08:48:17.892Z,3468.00
2019-01-23T08:49:17.909Z,3696.00
2019-01-23T08:50:17.884Z,3716.00
2019-01-23T08:51:17.872Z,3228.00
2019-01-23T08:52:17.848Z,3016.00
2019-01-23T08:53:17.842Z,3112.00
2019-01-23T08:54:17.880Z,3852.00
2019-01-23T08:55:17.866Z,4180.00
2019-01-23T08:56:17.819Z,3328.00
2019-01-23T08:57:17.807Z,4360.00
2019-01-23T08:58:17.789Z,5276.00
2019-01-23T08:59:17.779Z,4012.00
2019-01-23T09:00:17.785Z,3444.00
2019-01-23T09:01:17.756Z,3796.00
2019-01-23T09:02:17.753Z,3292.00
2019-01-23T09:03:17.742Z,2940.00
2019-01-23T09:04:17.732Z,4472.00
2019-01-23T09:05:17.771Z,4516.00
2019-01-23T09:06:17.703Z,3320.00
2019-01-23T09:07:17.693Z,3136.00
2019-01-23T09:08:17.698Z,2696.00
2019-01-23T09:09:17.679Z,2880.00
2019-01-23T09:10:17.703Z,2480.00
2019-01-23T09:11:17.650Z,2784.00
2019-01-23T09:12:17.642Z,2976.00
2019-01-23T09:13:17.630Z,2752.00
2019-01-23T09:14:17.636Z,2272.00
2019-01-23T09:15:17.614Z,2056.00
2019-01-23T09:16:17.631Z,2356.00
2019-01-23T09:17:17.590Z,2672.00
2019-01-23T09:18:17.576Z,2568.00
2019-01-23T09:19:17.565Z,1956.00
2019-01-23T09:20:17.560Z,1908.00
2019-01-23T09:21:17.564Z,2716.00
2019-01-23T09:22:17.539Z,2800.00
2019-01-23T09:23:17.533Z,2416.00
2019-01-23T09:24:17.516Z,1696.00
2019-01-23T09:25:17.504Z,2536.00
2019-01-23T09:26:17.517Z,2356.00
2019-01-23T09:27:17.488Z,2196.00
2019-01-23T09:28:17.476Z,2180.00
2019-01-23T09:29:17.466Z,2836.00
2019-01-23T09:30:17.450Z,2468.00
2019-01-23T09:31:17.463Z,3296.00
2019-01-23T09:32:17.453Z,2888.00
2019-01-23T09:33:17.420Z,2428.00
2019-01-23T09:34:17.411Z,2680.00
2019-01-23T09:35:17.401Z,3388.00
2019-01-23T09:36:17.393Z,5280.00
2019-01-23T09:37:17.407Z,4256.00
2019-01-23T09:38:17.364Z,4136.00
2019-01-23T09:39:17.355Z,6900.00
2019-01-23T09:40:17.348Z,7296.00
2019-01-23T09:41:17.391Z,6732.00
2019-01-23T09:42:17.355Z,8048.00
2019-01-23T09:43:17.315Z,7568.00
2019-01-23T09:44:17.300Z,7512.00
2019-01-23T09:45:17.289Z,7624.00
2019-01-23T09:46:17.286Z,7204.00
2019-01-23T09:47:17.275Z,6544.00
2019-01-23T09:48:17.296Z,6664.00
2019-01-23T09:49:17.253Z,5064.00
2019-01-23T09:50:17.236Z,4760.00
2019-01-23T09:51:17.226Z,3476.00
2019-01-23T09:52:17.220Z,2816.00
2019-01-23T09:53:17.227Z,2848.00
2019-01-23T09:54:17.200Z,2844.00
2019-01-23T09:55:17.190Z,2552.00
2019-01-23T09:56:17.174Z,2092.00
2019-01-23T09:57:17.164Z,2320.00
2019-01-23T09:58:17.192Z,3412.00
2019-01-23T09:59:17.148Z,5304.00
2019-01-23T10:00:17.140Z,3500.00
2019-01-23T10:01:17.125Z,3416.00
2019-01-23T10:02:17.111Z,3592.00
2019-01-23T10:03:22.915Z,6368.00
2019-01-23T10:04:18.109Z,6640.00
2019-01-23T10:05:17.088Z,13028.00
2019-01-23T10:06:17.074Z,13472.00
2019-01-23T10:07:17.084Z,12984.00
2019-01-23T10:08:17.055Z,15008.00
2019-01-23T10:09:17.061Z,13344.00
2019-01-23T10:10:17.026Z,12980.00
2019-01-23T10:11:17.016Z,11616.00
2019-01-23T10:12:17.011Z,11824.00
2019-01-23T10:13:17.000Z,10988.00
2019-01-23T10:14:17.014Z,11000.00
2019-01-23T10:15:16.975Z,10428.00
2019-01-23T10:16:16.963Z,9428.00
2019-01-23T10:17:16.954Z,9040.00
2019-01-23T10:18:16.945Z,7444.00
2019-01-23T10:19:16.932Z,7308.00
2019-01-23T10:20:16.947Z,9228.00
2019-01-23T10:21:16.934Z,8520.00
2019-01-23T10:22:16.897Z,5740.00
2019-01-23T10:23:16.886Z,5660.00
2019-01-23T10:24:16.887Z,4572.00
2019-01-23T10:25:17.019Z,3816.00
2019-01-23T10:26:16.860Z,4040.00
2019-01-23T10:27:16.852Z,5744.00
2019-01-23T10:28:16.831Z,5936.00
2019-01-23T10:29:16.819Z,5128.00
2019-01-23T10:30:16.818Z,5336.00
2019-01-23T10:31:16.836Z,5764.00
2019-01-23T10:32:16.796Z,5624.00
2019-01-23T10:33:17.454Z,5928.00
2019-01-23T10:34:16.776Z,6228.00
2019-01-23T10:35:16.761Z,6440.00
2019-01-23T10:36:16.778Z,7372.00
2019-01-23T10:37:19.623Z,8200.00
2019-01-23T10:38:16.733Z,8008.00
2019-01-23T10:39:16.726Z,7172.00
2019-01-23T10:40:16.710Z,7332.00
2019-01-23T10:41:16.699Z,7496.00
2019-01-23T10:42:16.707Z,6264.00
2019-01-23T10:43:16.675Z,6228.00
2019-01-23T10:44:16.670Z,6268.00
2019-01-23T10:45:16.657Z,5652.00
2019-01-23T10:46:16.645Z,6736.00
2019-01-23T10:47:16.665Z,7456.00
2019-01-23T10:48:16.620Z,6156.00
2019-01-23T10:49:16.607Z,5880.00
2019-01-23T10:50:16.604Z,5816.00
2019-01-23T10:51:16.594Z,5676.00
2019-01-23T10:52:16.615Z,5584.00
2019-01-23T10:53:16.574Z,4808.00
2019-01-23T10:54:16.557Z,4296.00
2019-01-23T10:55:16.547Z,4212.00
2019-01-23T10:56:16.573Z,4116.00
2019-01-23T10:57:16.521Z,4856.00
2019-01-23T10:58:16.541Z,5684.00
2019-01-23T10:59:16.508Z,6416.00
2019-01-23T11:00:16.491Z,6756.00
2019-01-23T11:01:16.486Z,7508.00
2019-01-23T11:02:16.519Z,7460.00
2019-01-23T11:03:16.469Z,6160.00
2019-01-23T11:04:16.454Z,6112.00
2019-01-23T11:05:16.443Z,6176.00
2019-01-23T11:06:16.431Z,5756.00
2019-01-23T11:07:16.438Z,6472.00
2019-01-23T11:08:16.415Z,7796.00
2019-01-23T11:09:16.461Z,6836.00
2019-01-23T11:10:25.159Z,6700.00
2019-01-23T11:11:16.382Z,6140.00
2019-01-23T11:12:16.392Z,5752.00
2019-01-23T11:13:16.355Z,5456.00
2019-01-23T11:14:16.355Z,6052.00
2019-01-23T11:15:16.354Z,7200.00
2019-01-23T11:16:16.323Z,7244.00
2019-01-23T11:17:16.343Z,7292.00
2019-01-23T11:18:16.297Z,7816.00
2019-01-23T11:19:16.292Z,6260.00
2019-01-23T11:20:16.286Z,5640.00
2019-01-23T11:21:17.656Z,6832.00
2019-01-23T11:22:16.263Z,6560.00
2019-01-23T11:23:16.275Z,6268.00
2019-01-23T11:24:16.240Z,5672.00
2019-01-23T11:25:16.225Z,5100.00
2019-01-23T11:26:16.215Z,5828.00
2019-01-23T11:27:16.223Z,5392.00
2019-01-23T11:28:16.228Z,5196.00
2019-01-23T11:29:16.191Z,5368.00
2019-01-23T11:30:16.180Z,5060.00
2019-01-23T11:31:20.320Z,4252.00
2019-01-23T11:32:16.157Z,5032.00
2019-01-23T11:33:16.145Z,4120.00
2019-01-23T11:34:16.158Z,4504.00
2019-01-23T11:35:16.124Z,4340.00
2019-01-23T11:36:16.108Z,4316.00
2019-01-23T11:37:16.096Z,4768.00
2019-01-23T11:38:16.085Z,4840.00
2019-01-23T11:39:16.107Z,5652.00
2019-01-23T11:40:16.071Z,5204.00
2019-01-23T11:41:16.061Z,4644.00
2019-01-23T11:42:16.050Z,5316.00
2019-01-23T11:43:16.037Z,4492.00
2019-01-23T11:44:16.020Z,3392.00
2019-01-23T11:45:16.032Z,3052.00
2019-01-23T11:46:16.009Z,2724.00
2019-01-23T11:47:15.999Z,2952.00
2019-01-23T11:48:15.987Z,3484.00
2019-01-23T11:49:15.990Z,2980.00
2019-01-23T11:50:21.306Z,2860.00
2019-01-23T11:51:16.969Z,2860.00
2019-01-23T11:52:15.941Z,2292.00
2019-01-23T11:53:15.954Z,2108.00
2019-01-23T11:54:15.926Z,2004.00
2019-01-23T11:55:15.910Z,2292.00
2019-01-23T11:56:15.896Z,2976.00
2019-01-23T11:57:15.883Z,3012.00
2019-01-23T11:58:15.900Z,2804.00
2019-01-23T11:59:15.864Z,2884.00
2019-01-23T12:00:15.860Z,2596.00
2019-01-23T12:01:15.847Z,2040.00
2019-01-23T12:02:15.834Z,2200.00
2019-01-23T12:03:20.926Z,2148.00
2019-01-23T12:04:16.824Z,2412.00
2019-01-23T12:05:15.807Z,2348.00
2019-01-23T12:06:15.796Z,2424.00
2019-01-23T12:07:15.785Z,3104.00
2019-01-23T12:08:15.769Z,2896.00
2019-01-23T12:09:15.794Z,2760.00
2019-01-23T12:10:15.747Z,3092.00
2019-01-23T12:11:15.771Z,3416.00
2019-01-23T12:12:15.731Z,2980.00
2019-01-23T12:13:15.720Z,2908.00
2019-01-23T12:14:15.710Z,2808.00
2019-01-23T12:15:15.720Z,3224.00
2019-01-23T12:16:15.725Z,2912.00
2019-01-23T12:17:15.670Z,2620.00
2019-01-23T12:18:15.666Z,2720.00
2019-01-23T12:19:15.656Z,2580.00
2019-01-23T12:20:15.661Z,2588.00
2019-01-23T12:21:15.652Z,2604.00
2019-01-23T12:22:15.618Z,3016.00
2019-01-23T12:23:15.610Z,3796.00
2019-01-23T12:24:15.603Z,4104.00
2019-01-23T12:25:15.619Z,3472.00
2019-01-23T12:26:15.619Z,3452.00
2019-01-23T12:27:15.572Z,3324.00
2019-01-23T12:28:15.554Z,3296.00
2019-01-23T12:29:15.547Z,2752.00
2019-01-23T12:30:15.535Z,2604.00
2019-01-23T12:31:15.524Z,2784.00
2019-01-23T12:32:15.552Z,2500.00
2019-01-23T12:33:15.513Z,2972.00
2019-01-23T12:34:15.490Z,2576.00
2019-01-23T12:35:15.482Z,2700.00
2019-01-23T12:36:15.478Z,2792.00
2019-01-23T12:37:15.466Z,2728.00
2019-01-23T12:38:15.476Z,2608.00
2019-01-23T12:39:15.445Z,2440.00
2019-01-23T12:40:15.433Z,2008.00
2019-01-23T12:41:15.435Z,2072.00
2019-01-23T12:42:15.430Z,1900.00
2019-01-23T12:43:15.418Z,1772.00
2019-01-23T12:44:15.393Z,1740.00
2019-01-23T12:45:15.422Z,1804.00
2019-01-23T12:46:15.370Z,1680.00
2019-01-23T12:47:15.385Z,1776.00
2019-01-23T12:48:15.378Z,1520.00
2019-01-23T12:49:15.336Z,1428.00